Time;durP1;ratioP1;P1;durP2;ratioP2;P2;SDS_P1;SDS_P2;PMS_P1;PMS_P2;Temp;Humidity;BMP_temperature;BMP_pressure;BME280_temperature;BME280_humidity;BME280_pressure;Samples;Min_cycle;Max_cycle;Signal;HPM_P1;HPM_P2
2023/12/19 00:01:09;;;;;;;54.08;29.13;;;8.90;99.90;;;;;;5003915;28;20517;-63
2023/12/19 00:03:34;;;;;;;52.38;29.83;;;8.90;99.90;;;;;;5001752;28;20109;-63
2023/12/19 00:06:00;;;;;;;48.83;26.73;;;8.90;99.90;;;;;;4997370;28;20388;-63
2023/12/19 00:08:26;;;;;;;49.28;26.95;;;8.80;99.90;;;;;;4994891;28;20049;-64
2023/12/19 00:10:52;;;;;;;52.55;27.35;;;8.80;99.90;;;;;;5001645;28;20057;-63
2023/12/19 00:13:17;;;;;;;60.20;28.15;;;8.90;99.90;;;;;;4981080;28;20044;-64
2023/12/19 00:15:43;;;;;;;50.45;25.80;;;8.90;99.90;;;;;;4997624;28;20038;-64
2023/12/19 00:18:09;;;;;;;43.40;24.58;;;8.80;99.90;;;;;;5003608;28;20034;-63
2023/12/19 00:20:35;;;;;;;48.20;25.42;;;9.00;99.90;;;;;;5000130;28;20077;-63
2023/12/19 00:23:00;;;;;;;45.58;25.90;;;8.80;99.90;;;;;;4998831;28;20523;-64
2023/12/19 00:25:27;;;;;;;49.35;26.15;;;9.00;99.90;;;;;;5000449;28;20081;-63
2023/12/19 00:27:53;;;;;;;39.33;24.30;;;8.90;99.90;;;;;;5003331;28;20060;-63
2023/12/19 00:30:19;;;;;;;45.78;25.02;;;8.90;99.90;;;;;;5001551;28;20042;-64
2023/12/19 00:32:45;;;;;;;46.58;25.67;;;9.00;99.90;;;;;;4999009;28;20045;-63
2023/12/19 00:35:11;;;;;;;47.67;26.85;;;9.00;99.90;;;;;;4996255;28;20413;-63
2023/12/19 00:37:37;;;;;;;52.25;26.88;;;9.00;99.90;;;;;;5002140;28;20404;-63
2023/12/19 00:40:05;;;;;;;55.60;27.48;;;9.00;99.90;;;;;;4996297;28;20038;-62
2023/12/19 00:42:31;;;;;;;54.50;26.83;;;9.00;99.90;;;;;;5000005;28;20857;-63
2023/12/19 00:44:57;;;;;;;43.90;24.08;;;9.00;99.90;;;;;;5002600;28;20415;-63
2023/12/19 00:47:22;;;;;;;50.75;26.55;;;9.00;99.90;;;;;;4999745;28;20501;-63
2023/12/19 00:49:48;;;;;;;54.30;26.33;;;9.00;99.90;;;;;;5003852;28;20046;-63
2023/12/19 00:52:14;;;;;;;43.75;23.98;;;9.00;99.90;;;;;;5002696;28;20095;-63
2023/12/19 00:54:40;;;;;;;48.85;26.40;;;9.00;99.90;;;;;;5002700;28;20089;-63
2023/12/19 00:57:06;;;;;;;50.25;26.15;;;9.00;99.90;;;;;;5003319;28;20072;-63
2023/12/19 00:59:31;;;;;;;49.42;27.55;;;9.10;99.90;;;;;;4998324;28;20049;-64
2023/12/19 01:01:57;;;;;;;44.38;24.83;;;9.00;99.90;;;;;;5001098;28;20120;-63
2023/12/19 01:04:23;;;;;;;47.53;26.33;;;9.00;99.90;;;;;;4995160;28;20501;-63
2023/12/19 01:06:48;;;;;;;43.78;24.92;;;9.00;99.90;;;;;;5001349;28;20120;-64
2023/12/19 01:09:14;;;;;;;45.78;24.90;;;9.00;99.90;;;;;;5000756;28;20046;-64
2023/12/19 01:11:40;;;;;;;44.13;25.60;;;9.00;99.90;;;;;;5000853;28;20041;-63
2023/12/19 01:14:06;;;;;;;44.42;25.30;;;9.10;99.90;;;;;;5000372;28;20438;-63
2023/12/19 01:16:31;;;;;;;49.58;24.60;;;9.10;99.90;;;;;;4996495;28;20640;-64
2023/12/19 01:18:57;;;;;;;43.60;23.85;;;9.10;99.90;;;;;;5000733;28;20041;-63
2023/12/19 01:21:23;;;;;;;45.58;23.70;;;9.10;99.90;;;;;;4996759;28;20061;-63
2023/12/19 01:23:49;;;;;;;42.95;23.48;;;9.10;99.90;;;;;;5001631;28;20038;-63
2023/12/19 01:26:14;;;;;;;41.90;23.55;;;9.10;99.90;;;;;;4999906;28;20274;-64
2023/12/19 01:28:40;;;;;;;39.13;23.33;;;9.10;99.90;;;;;;4999505;28;20039;-63
2023/12/19 01:31:06;;;;;;;39.75;23.33;;;9.10;99.90;;;;;;4994992;28;20047;-63
2023/12/19 01:33:32;;;;;;;39.72;21.35;;;9.10;99.90;;;;;;5000660;28;20048;-62
2023/12/19 01:35:57;;;;;;;45.13;22.55;;;9.10;99.90;;;;;;4995865;28;20129;-64
2023/12/19 01:38:23;;;;;;;39.00;23.67;;;9.20;99.90;;;;;;5003214;28;20507;-63
2023/12/19 01:40:49;;;;;;;39.65;22.17;;;9.10;99.90;;;;;;5001454;28;20042;-64
2023/12/19 01:43:19;;;;;;;40.42;21.38;;;9.20;99.90;;;;;;5000187;28;20126;-64
2023/12/19 01:45:45;;;;;;;35.70;21.67;;;9.10;99.90;;;;;;4984919;28;20545;-64
2023/12/19 01:48:13;;;;;;;38.42;21.15;;;9.10;99.90;;;;;;4992343;28;20540;-64
2023/12/19 01:50:40;;;;;;;32.80;21.42;;;9.20;99.90;;;;;;4991603;28;20046;-63
2023/12/19 01:53:06;;;;;;;34.58;20.95;;;9.10;99.90;;;;;;4999912;28;20038;-63
2023/12/19 01:55:32;;;;;;;41.70;21.35;;;9.10;99.90;;;;;;4996548;28;20116;-64
2023/12/19 01:57:59;;;;;;;31.25;19.77;;;9.10;99.90;;;;;;4993272;28;20030;-63
2023/12/19 02:00:25;;;;;;;33.30;19.60;;;9.10;99.90;;;;;;5001127;28;20248;-63
2023/12/19 02:02:52;;;;;;;29.25;18.85;;;9.20;99.90;;;;;;4997946;28;20053;-63
2023/12/19 02:05:19;;;;;;;30.02;18.88;;;9.10;99.90;;;;;;5002235;28;20463;-64
2023/12/19 02:07:45;;;;;;;30.55;18.02;;;9.10;99.90;;;;;;5000984;28;20050;-63
2023/12/19 02:10:11;;;;;;;27.05;17.38;;;9.10;99.90;;;;;;5001117;28;20052;-63
2023/12/19 02:12:38;;;;;;;30.67;17.60;;;9.10;99.90;;;;;;4991598;28;20050;-63
2023/12/19 02:15:05;;;;;;;26.33;17.63;;;9.20;99.90;;;;;;5000640;28;20053;-64
2023/12/19 02:17:31;;;;;;;28.63;17.38;;;9.20;99.90;;;;;;4997086;28;20049;-63
2023/12/19 02:19:57;;;;;;;26.55;17.27;;;9.20;99.90;;;;;;4998811;28;20476;-63
2023/12/19 02:22:22;;;;;;;29.08;17.17;;;9.10;99.90;;;;;;5001532;28;20508;-64
2023/12/19 02:24:48;;;;;;;28.88;17.15;;;9.10;99.90;;;;;;4997602;28;20422;-63
2023/12/19 02:27:18;;;;;;;29.00;17.38;;;9.20;99.90;;;;;;5001026;28;20109;-63
2023/12/19 02:29:44;;;;;;;25.15;16.67;;;9.10;99.90;;;;;;4999491;28;20313;-64
2023/12/19 02:32:10;;;;;;;28.80;17.88;;;9.10;99.90;;;;;;5000266;28;20561;-63
2023/12/19 02:34:36;;;;;;;28.83;18.02;;;9.10;99.90;;;;;;4998070;28;20560;-64
2023/12/19 02:37:02;;;;;;;24.95;16.83;;;9.20;99.90;;;;;;5000646;28;20080;-63
2023/12/19 02:39:27;;;;;;;29.35;16.75;;;9.20;99.90;;;;;;4998723;28;20136;-64
2023/12/19 02:41:53;;;;;;;25.52;16.85;;;9.10;99.90;;;;;;4998260;28;20037;-63
2023/12/19 02:44:19;;;;;;;28.70;17.00;;;9.10;99.90;;;;;;4999646;28;20041;-63
2023/12/19 02:46:45;;;;;;;25.73;17.08;;;9.20;99.90;;;;;;5001557;28;20054;-64
2023/12/19 02:49:10;;;;;;;23.17;15.52;;;9.10;99.90;;;;;;4999933;28;20042;-64
2023/12/19 02:51:36;;;;;;;24.98;16.27;;;9.20;99.90;;;;;;5000395;28;20521;-63
2023/12/19 02:54:02;;;;;;;25.90;15.45;;;9.10;99.90;;;;;;4989655;28;20153;-63
2023/12/19 02:56:28;;;;;;;20.75;13.70;;;9.20;99.90;;;;;;4997572;28;20065;-63
2023/12/19 02:58:54;;;;;;;24.60;15.45;;;9.20;99.90;;;;;;4995431;28;20109;-63
2023/12/19 03:01:20;;;;;;;22.73;14.43;;;9.10;99.90;;;;;;4991646;28;20778;-63
2023/12/19 03:03:45;;;;;;;23.45;15.43;;;9.20;99.90;;;;;;5001711;28;20045;-63
2023/12/19 03:06:14;;;;;;;24.50;15.30;;;9.20;99.90;;;;;;4997095;28;20046;-63
2023/12/19 03:08:45;;;;;;;21.88;14.10;;;9.20;99.90;;;;;;4993118;28;20056;-63
2023/12/19 03:11:11;;;;;;;22.77;14.50;;;9.20;99.90;;;;;;4997081;28;20501;-63
2023/12/19 03:13:37;;;;;;;23.55;14.82;;;9.20;99.90;;;;;;5001735;28;20061;-63
2023/12/19 03:16:03;;;;;;;21.40;14.20;;;9.20;99.90;;;;;;4999998;28;20485;-63
2023/12/19 03:18:29;;;;;;;22.65;14.95;;;9.20;99.90;;;;;;5001062;28;20111;-63
2023/12/19 03:20:55;;;;;;;23.50;14.90;;;9.20;99.90;;;;;;4998281;28;20049;-64
2023/12/19 03:23:24;;;;;;;19.40;13.85;;;9.10;99.90;;;;;;5000403;28;20046;-63
2023/12/19 03:25:49;;;;;;;18.83;13.07;;;9.40;99.90;;;;;;4999185;28;20054;-63
2023/12/19 03:28:16;;;;;;;23.60;13.70;;;9.00;99.90;;;;;;4999363;28;20116;-63
2023/12/19 03:30:42;;;;;;;22.08;14.70;;;9.10;99.90;;;;;;4995899;28;20054;-63
2023/12/19 03:33:08;;;;;;;20.63;14.95;;;9.10;99.90;;;;;;4998161;28;20547;-63
2023/12/19 03:35:34;;;;;;;24.50;15.07;;;9.10;99.90;;;;;;5001089;28;20046;-61
2023/12/19 03:38:00;;;;;;;21.10;13.73;;;9.10;99.90;;;;;;4997126;28;20046;-63
2023/12/19 03:40:26;;;;;;;24.13;14.55;;;9.10;99.90;;;;;;4997081;28;20137;-63
2023/12/19 03:42:52;;;;;;;20.92;14.27;;;9.10;99.90;;;;;;5000809;28;20410;-63
2023/12/19 03:45:18;;;;;;;21.95;14.55;;;9.00;99.90;;;;;;5000180;28;20804;-63
2023/12/19 03:47:44;;;;;;;20.63;14.60;;;9.10;99.90;;;;;;4996247;28;20045;-63
2023/12/19 03:50:10;;;;;;;19.55;13.57;;;9.00;99.90;;;;;;4993298;28;20041;-63
2023/12/19 03:52:36;;;;;;;21.50;14.65;;;9.00;99.90;;;;;;4998264;28;20099;-63
2023/12/19 03:55:03;;;;;;;18.58;12.50;;;9.10;99.90;;;;;;4997224;28;20038;-62
2023/12/19 03:57:29;;;;;;;19.80;14.18;;;9.00;99.90;;;;;;4993059;28;20050;-63
2023/12/19 03:59:55;;;;;;;22.83;13.65;;;9.00;99.90;;;;;;4997155;28;20052;-63
2023/12/19 04:02:21;;;;;;;21.55;13.10;;;9.10;99.90;;;;;;4994067;28;20133;-63
2023/12/19 04:04:47;;;;;;;18.15;12.13;;;9.00;99.90;;;;;;5000562;28;20054;-63
2023/12/19 04:07:12;;;;;;;17.83;11.95;;;9.00;99.90;;;;;;4993064;28;20637;-63
2023/12/19 04:09:38;;;;;;;16.05;10.90;;;9.00;99.90;;;;;;5000104;28;20074;-63
2023/12/19 04:12:06;;;;;;;16.45;11.00;;;9.00;99.90;;;;;;4998445;28;20038;-63
2023/12/19 04:14:32;;;;;;;15.40;10.52;;;9.00;99.90;;;;;;5001171;28;20117;-63
2023/12/19 04:16:59;;;;;;;15.75;9.73;;;9.00;99.90;;;;;;5001129;28;20044;-63
2023/12/19 04:19:25;;;;;;;14.60;9.45;;;9.10;99.90;;;;;;4999805;28;20056;-63
2023/12/19 04:21:51;;;;;;;13.05;9.10;;;9.10;99.90;;;;;;5000519;28;20042;-63
2023/12/19 04:24:18;;;;;;;13.73;9.80;;;9.00;99.90;;;;;;5002505;28;20042;-63
2023/12/19 04:26:43;;;;;;;16.15;10.07;;;8.90;99.90;;;;;;5002219;28;20045;-63
2023/12/19 04:29:09;;;;;;;11.02;8.30;;;9.00;99.90;;;;;;5004075;28;20034;-63
2023/12/19 04:31:36;;;;;;;13.10;9.07;;;8.90;99.90;;;;;;5000832;28;20046;-63
2023/12/19 04:34:02;;;;;;;11.60;8.43;;;8.90;99.90;;;;;;5003880;28;20137;-63
2023/12/19 04:36:31;;;;;;;12.93;8.30;;;8.90;99.90;;;;;;5004028;28;20041;-63
2023/12/19 04:38:57;;;;;;;10.38;7.97;;;9.00;99.90;;;;;;5002602;28;20496;-64
2023/12/19 04:41:22;;;;;;;10.23;7.80;;;9.00;99.90;;;;;;5001918;28;20034;-63
2023/12/19 04:43:48;;;;;;;10.93;7.82;;;8.90;99.90;;;;;;5000432;28;20492;-63
2023/12/19 04:46:14;;;;;;;11.60;7.55;;;9.00;99.90;;;;;;5003376;28;20099;-64
2023/12/19 04:48:43;;;;;;;10.38;7.78;;;8.90;99.90;;;;;;5002812;28;20041;-64
2023/12/19 04:51:19;;;;;;;11.75;8.40;;;8.90;99.90;;;;;;4998038;28;20038;-63
2023/12/19 04:53:46;;;;;;;10.63;7.47;;;8.90;99.90;;;;;;5003657;28;20520;-64
2023/12/19 04:56:12;;;;;;;9.38;6.85;;;8.90;99.90;;;;;;4999295;28;20452;-63
2023/12/19 04:58:38;;;;;;;9.98;7.13;;;9.00;99.90;;;;;;4998188;28;20038;-63
2023/12/19 05:01:04;;;;;;;8.73;6.40;;;9.00;99.90;;;;;;4993971;28;20851;-63
2023/12/19 05:03:30;;;;;;;10.90;7.18;;;9.00;99.90;;;;;;5000569;28;20041;-63
2023/12/19 05:05:56;;;;;;;9.80;6.32;;;9.00;99.90;;;;;;4977658;28;20441;-63
2023/12/19 05:08:21;;;;;;;9.40;6.97;;;9.00;99.90;;;;;;4985871;28;20038;-63
2023/12/19 05:10:47;;;;;;;9.93;7.07;;;9.00;99.90;;;;;;4999332;28;20432;-63
2023/12/19 05:13:13;;;;;;;11.00;6.97;;;9.00;99.90;;;;;;4998418;28;20113;-63
2023/12/19 05:15:39;;;;;;;8.82;6.75;;;9.00;99.90;;;;;;4985508;28;20034;-63
2023/12/19 05:18:05;;;;;;;8.63;6.63;;;9.10;99.90;;;;;;4999865;28;20469;-63
2023/12/19 05:20:30;;;;;;;10.60;6.22;;;8.90;99.90;;;;;;5001066;28;20610;-63
2023/12/19 05:22:56;;;;;;;9.40;6.10;;;8.90;99.90;;;;;;4999962;28;20069;-64
2023/12/19 05:25:22;;;;;;;8.45;6.47;;;9.10;99.90;;;;;;5002808;28;20070;-63
2023/12/19 05:27:48;;;;;;;7.60;6.05;;;9.00;99.90;;;;;;5000697;28;20100;-63
2023/12/19 05:30:15;;;;;;;7.80;6.07;;;9.00;99.90;;;;;;5002560;28;20038;-64
2023/12/19 05:32:41;;;;;;;7.43;5.80;;;9.10;99.90;;;;;;4997422;28;20138;-63
2023/12/19 05:35:07;;;;;;;9.38;6.25;;;9.00;99.90;;;;;;4999863;28;20042;-63
2023/12/19 05:37:33;;;;;;;7.72;5.97;;;8.90;99.90;;;;;;5001797;28;20116;-63
2023/12/19 05:39:58;;;;;;;7.43;5.63;;;8.90;99.90;;;;;;5001178;28;20147;-63
2023/12/19 05:42:24;;;;;;;5.97;4.85;;;9.10;99.90;;;;;;4999305;28;20147;-63
2023/12/19 05:44:50;;;;;;;9.30;6.25;;;9.00;99.90;;;;;;5002199;28;20134;-64
2023/12/19 05:47:16;;;;;;;7.97;6.25;;;9.00;99.90;;;;;;4998900;28;20046;-64
2023/12/19 05:49:41;;;;;;;6.63;5.70;;;9.10;99.90;;;;;;4998890;28;20045;-64
2023/12/19 05:52:07;;;;;;;8.23;5.57;;;9.00;99.90;;;;;;4998884;28;20137;-63
2023/12/19 05:54:33;;;;;;;7.35;5.70;;;9.10;99.90;;;;;;4996090;28;20048;-64
2023/12/19 05:56:59;;;;;;;7.60;5.53;;;9.00;99.90;;;;;;4999640;28;20464;-65
2023/12/19 05:59:25;;;;;;;8.10;5.45;;;9.00;99.90;;;;;;5002108;28;20421;-64
2023/12/19 06:01:51;;;;;;;7.47;5.40;;;9.10;99.90;;;;;;5001784;28;20491;-63
2023/12/19 06:04:16;;;;;;;7.65;5.72;;;9.10;99.90;;;;;;5002141;28;20117;-64
2023/12/19 06:06:44;;;;;;;9.18;5.72;;;9.20;99.90;;;;;;4999745;28;20488;-64
2023/12/19 06:09:11;;;;;;;9.02;5.78;;;9.10;99.90;;;;;;4999696;28;20030;-64
2023/12/19 06:11:37;;;;;;;6.32;5.35;;;9.10;99.90;;;;;;4996276;28;20501;-63
2023/12/19 06:14:05;;;;;;;8.25;5.75;;;9.10;99.90;;;;;;4997245;28;20033;-64
2023/12/19 06:16:31;;;;;;;7.93;5.43;;;9.20;99.90;;;;;;4998427;28;20385;-64
2023/12/19 06:18:57;;;;;;;7.22;5.45;;;9.10;99.90;;;;;;4996063;28;20049;-64
2023/12/19 06:21:23;;;;;;;6.60;5.25;;;9.10;99.90;;;;;;4999321;28;20325;-64
2023/12/19 06:23:49;;;;;;;6.38;4.88;;;9.10;99.90;;;;;;4998265;28;20509;-64
2023/12/19 06:26:15;;;;;;;6.68;5.32;;;9.20;99.90;;;;;;4999798;28;20037;-64
2023/12/19 06:28:41;;;;;;;8.07;5.68;;;9.20;99.90;;;;;;4996584;28;20403;-64
2023/12/19 06:31:06;;;;;;;8.18;5.50;;;9.10;99.90;;;;;;4997627;28;20532;-64
2023/12/19 06:33:32;;;;;;;7.22;5.57;;;9.20;99.90;;;;;;4998183;28;20060;-64
2023/12/19 06:35:58;;;;;;;8.70;5.85;;;9.20;99.90;;;;;;4997639;28;20045;-64
2023/12/19 06:38:24;;;;;;;7.05;5.47;;;9.10;99.90;;;;;;4998565;28;20049;-63
2023/12/19 06:40:50;;;;;;;9.23;6.03;;;9.20;99.90;;;;;;4979722;28;20528;-63
2023/12/19 06:43:17;;;;;;;7.63;5.75;;;9.20;99.90;;;;;;4999223;28;20033;-64
2023/12/19 06:45:42;;;;;;;8.57;6.35;;;9.20;99.90;;;;;;4998446;28;20103;-64
2023/12/19 06:48:08;;;;;;;8.43;6.50;;;9.10;99.90;;;;;;4997230;28;20033;-63
2023/12/19 06:50:34;;;;;;;8.35;6.50;;;9.30;99.90;;;;;;4997486;28;20057;-64
2023/12/19 06:53:00;;;;;;;7.45;6.13;;;9.20;99.90;;;;;;4998340;28;20042;-64
2023/12/19 06:55:27;;;;;;;9.20;6.50;;;9.30;99.90;;;;;;4998285;28;20045;-63
2023/12/19 06:57:53;;;;;;;8.05;6.20;;;9.20;99.90;;;;;;4996636;28;20042;-64
2023/12/19 07:00:19;;;;;;;9.38;6.53;;;9.20;99.90;;;;;;4997792;28;20038;-64
2023/12/19 07:02:45;;;;;;;8.57;6.57;;;9.30;99.90;;;;;;4998885;28;20474;-64
2023/12/19 07:05:10;;;;;;;10.57;6.63;;;9.20;99.90;;;;;;4998915;28;20208;-64
2023/12/19 07:07:36;;;;;;;8.57;6.13;;;9.30;99.90;;;;;;4980202;28;20042;-64
2023/12/19 07:10:03;;;;;;;10.25;6.10;;;9.30;99.90;;;;;;4997606;28;20088;-64
2023/12/19 07:12:30;;;;;;;7.43;5.68;;;9.20;99.90;;;;;;4997693;28;20076;-64
2023/12/19 07:14:55;;;;;;;9.40;6.28;;;9.30;99.90;;;;;;4997369;28;20041;-64
2023/12/19 07:17:22;;;;;;;7.53;5.65;;;9.20;99.90;;;;;;4980831;28;20496;-64
2023/12/19 07:19:48;;;;;;;7.53;5.72;;;9.20;99.90;;;;;;4997296;28;20224;-63
2023/12/19 07:22:13;;;;;;;9.45;6.20;;;9.30;99.90;;;;;;4997666;28;20042;-62
2023/12/19 07:24:40;;;;;;;7.93;5.53;;;9.30;99.90;;;;;;4996933;28;20505;-64
2023/12/19 07:27:06;;;;;;;7.95;5.72;;;9.30;99.90;;;;;;4998540;28;21235;-62
2023/12/19 07:29:32;;;;;;;8.82;5.75;;;9.20;99.90;;;;;;4998064;28;20049;-63
2023/12/19 07:32:01;;;;;;;6.47;5.28;;;9.30;99.90;;;;;;4997764;28;20050;-64
2023/12/19 07:34:26;;;;;;;;;;;9.30;99.90;;;;;;4991587;28;20034;-63
2023/12/19 07:36:52;;;;;;;6.38;4.93;;;9.20;99.90;;;;;;5000703;28;19928;-62
2023/12/19 07:39:18;;;;;;;9.95;5.55;;;9.20;99.90;;;;;;5001688;28;20158;-63
2023/12/19 07:41:43;;;;;;;7.07;5.57;;;9.20;99.90;;;;;;5001524;28;20412;-63
2023/12/19 07:44:09;;;;;;;6.85;5.25;;;9.20;99.90;;;;;;4984056;28;20346;-63
2023/12/19 07:46:44;;;;;;;6.85;5.15;;;9.20;99.90;;;;;;5002473;28;20042;-63
2023/12/19 07:49:10;;;;;;;5.93;4.75;;;9.30;99.90;;;;;;5001241;28;20045;-66
2023/12/19 07:51:36;;;;;;;5.95;4.50;;;9.20;99.90;;;;;;5002672;28;20508;-63
2023/12/19 07:54:02;;;;;;;5.47;4.75;;;9.30;99.90;;;;;;5001139;28;20044;-64
2023/12/19 07:56:28;;;;;;;6.53;4.57;;;9.30;99.90;;;;;;4976701;28;20492;-64
2023/12/19 07:58:53;;;;;;;8.27;4.88;;;9.20;99.90;;;;;;5001285;28;20045;-63
2023/12/19 08:01:20;;;;;;;5.03;4.32;;;9.20;99.90;;;;;;5001582;28;20034;-64
2023/12/19 08:03:46;;;;;;;5.30;4.35;;;9.30;99.90;;;;;;5001174;28;20042;-64
2023/12/19 08:06:12;;;;;;;6.68;4.70;;;9.30;99.90;;;;;;5001583;28;20580;-62
2023/12/19 08:08:38;;;;;;;6.53;4.70;;;9.30;99.90;;;;;;5002387;28;20483;-63
2023/12/19 08:11:05;;;;;;;5.43;4.50;;;9.40;99.90;;;;;;5001587;28;20042;-64
2023/12/19 08:13:31;;;;;;;6.05;4.55;;;9.30;99.90;;;;;;5000381;28;20029;-63
2023/12/19 08:15:57;;;;;;;5.40;4.43;;;9.30;99.90;;;;;;5000783;28;20041;-63
2023/12/19 08:18:23;;;;;;;9.02;5.13;;;9.40;99.90;;;;;;4997312;28;20426;-64
2023/12/19 08:20:48;;;;;;;7.50;4.53;;;9.40;99.90;;;;;;4996168;28;20363;-64
2023/12/19 08:23:14;;;;;;;7.43;5.30;;;9.40;99.90;;;;;;4999983;28;20124;-63
2023/12/19 08:25:41;;;;;;;6.25;4.68;;;9.40;99.90;;;;;;5001639;28;20173;-63
2023/12/19 08:28:11;;;;;;;6.00;4.85;;;9.30;99.90;;;;;;5000454;28;20052;-63
2023/12/19 08:30:39;;;;;;;6.07;4.63;;;9.30;99.90;;;;;;5000834;28;20108;-63
2023/12/19 08:33:05;;;;;;;5.47;4.57;;;9.30;99.90;;;;;;4999571;28;20104;-64
2023/12/19 08:35:31;;;;;;;6.03;4.65;;;9.30;99.90;;;;;;4999603;28;20096;-63
2023/12/19 08:37:57;;;;;;;7.25;4.80;;;9.40;99.90;;;;;;4995159;28;20587;-63
2023/12/19 08:40:23;;;;;;;6.82;5.03;;;9.30;99.90;;;;;;4998243;28;20041;-63
2023/12/19 08:42:49;;;;;;;8.77;5.85;;;9.30;99.90;;;;;;4998733;28;20161;-64
2023/12/19 08:45:16;;;;;;;9.57;6.20;;;9.40;99.90;;;;;;4998051;28;20096;-63
2023/12/19 08:47:46;;;;;;;8.85;6.80;;;9.40;99.90;;;;;;4999345;28;20112;-63
2023/12/19 08:50:15;;;;;;;8.88;7.20;;;9.40;99.90;;;;;;5000741;28;20046;-64
2023/12/19 08:52:42;;;;;;;8.35;6.53;;;9.40;99.90;;;;;;5001213;28;20053;-63
2023/12/19 08:55:09;;;;;;;9.23;6.93;;;9.40;99.90;;;;;;5000960;28;20108;-62
2023/12/19 08:57:35;;;;;;;8.43;7.07;;;9.40;99.90;;;;;;4981475;28;20134;-64
2023/12/19 09:00:03;;;;;;;9.70;7.53;;;9.50;99.90;;;;;;5000800;28;20579;-63
2023/12/19 09:02:29;;;;;;;9.85;7.22;;;9.50;99.90;;;;;;5000730;28;20060;-62
2023/12/19 09:04:54;;;;;;;11.52;8.23;;;9.40;99.90;;;;;;5000420;28;20038;-64
2023/12/19 09:07:20;;;;;;;10.07;8.15;;;9.50;99.90;;;;;;5000970;28;20562;-64
2023/12/19 09:09:47;;;;;;;9.82;8.15;;;9.60;99.90;;;;;;5000342;28;20433;-64
2023/12/19 09:12:13;;;;;;;9.85;8.52;;;9.60;99.90;;;;;;4998318;28;20045;-64
2023/12/19 09:14:38;;;;;;;10.65;8.52;;;9.50;99.90;;;;;;4994981;28;20041;-63
2023/12/19 09:17:04;;;;;;;10.45;7.80;;;9.60;99.90;;;;;;4996624;28;20038;-63
2023/12/19 09:19:31;;;;;;;10.55;8.18;;;9.60;99.90;;;;;;4998394;28;20440;-64
2023/12/19 09:21:57;;;;;;;11.15;8.45;;;9.60;99.90;;;;;;4998176;28;20050;-63
2023/12/19 09:24:23;;;;;;;10.73;7.97;;;9.70;99.90;;;;;;4998597;28;20034;-64
2023/12/19 09:26:49;;;;;;;13.23;7.78;;;9.60;99.90;;;;;;4999895;28;20068;-64
2023/12/19 09:29:14;;;;;;;10.20;7.88;;;9.80;99.90;;;;;;4999620;28;20740;-64
2023/12/19 09:31:45;;;;;;;10.38;7.70;;;9.80;99.90;;;;;;4998188;28;20108;-64
2023/12/19 09:34:10;;;;;;;10.05;7.30;;;9.70;99.90;;;;;;4998384;28;20042;-64
2023/12/19 09:36:36;;;;;;;10.30;7.55;;;9.70;99.90;;;;;;5000140;28;20041;-64
2023/12/19 09:39:03;;;;;;;9.77;7.85;;;9.80;99.90;;;;;;4998648;28;20602;-64
2023/12/19 09:41:29;;;;;;;9.68;7.32;;;9.80;99.90;;;;;;4998090;28;20041;-63
2023/12/19 09:43:55;;;;;;;11.30;8.38;;;9.90;99.90;;;;;;4998017;28;20163;-64
2023/12/19 09:46:24;;;;;;;9.13;7.15;;;9.90;99.90;;;;;;4999911;28;20481;-63
2023/12/19 09:48:50;;;;;;;8.55;6.65;;;9.80;99.90;;;;;;4998836;28;20041;-64
2023/12/19 09:51:28;;;;;;;10.75;8.25;;;9.80;99.90;;;;;;4998161;28;20081;-63
2023/12/19 09:53:55;;;;;;;10.15;7.13;;;9.90;99.90;;;;;;5000183;28;20038;-64
2023/12/19 09:56:22;;;;;;;9.65;6.88;;;9.90;99.90;;;;;;4995981;28;20037;-63
2023/12/19 09:58:51;;;;;;;8.38;7.03;;;9.80;99.90;;;;;;4996164;28;20048;-63
2023/12/19 10:01:19;;;;;;;11.10;7.63;;;9.90;99.90;;;;;;4994645;28;20132;-63
2023/12/19 10:03:45;;;;;;;10.18;7.25;;;9.80;99.90;;;;;;4997071;28;20144;-64
2023/12/19 10:06:12;;;;;;;10.60;7.25;;;9.90;99.90;;;;;;4998876;28;20116;-64
2023/12/19 10:08:44;;;;;;;10.73;7.28;;;9.90;99.90;;;;;;5000336;28;20053;-63
2023/12/19 10:11:17;;;;;;;8.32;6.60;;;10.00;99.90;;;;;;4995589;28;20132;-64
2023/12/19 10:13:43;;;;;;;7.82;6.38;;;10.00;99.90;;;;;;4990538;28;20052;-64
2023/12/19 10:16:17;;;;;;;9.65;6.25;;;10.00;99.90;;;;;;4989803;28;20129;-63
2023/12/19 10:18:44;;;;;;;10.40;6.53;;;9.90;99.90;;;;;;4996969;28;20069;-64
2023/12/19 10:21:14;;;;;;;10.65;7.28;;;9.90;99.90;;;;;;4994079;28;20049;-63
2023/12/19 10:23:40;;;;;;;8.63;7.05;;;9.90;99.90;;;;;;4996298;28;20121;-65
2023/12/19 10:26:07;;;;;;;11.02;6.72;;;10.10;99.90;;;;;;4995719;28;20174;-64
2023/12/19 10:28:33;;;;;;;11.85;7.18;;;10.10;99.90;;;;;;4994689;28;20046;-63
2023/12/19 10:31:15;;;;;;;8.80;7.13;;;10.10;99.90;;;;;;4993283;28;20529;-64
2023/12/19 10:33:46;;;;;;;9.02;7.15;;;10.10;99.90;;;;;;4997981;28;20033;-63
2023/12/19 10:36:30;;;;;;;10.77;7.65;;;10.10;99.90;;;;;;4972418;28;20049;-64
2023/12/19 10:39:00;;;;;;;10.13;7.53;;;10.10;99.90;;;;;;4996587;28;20216;-65
2023/12/19 10:41:31;;;;;;;10.68;8.23;;;10.10;99.90;;;;;;4997827;28;20487;-64
2023/12/19 10:44:00;;;;;;;11.30;7.43;;;10.20;99.90;;;;;;4997764;28;20137;-63
2023/12/19 10:46:32;;;;;;;11.77;8.27;;;10.20;99.90;;;;;;4998905;28;20052;-64
2023/12/19 10:49:03;;;;;;;10.10;7.95;;;10.20;99.90;;;;;;4998090;28;20045;-63
2023/12/19 10:51:42;;;;;;;12.27;8.25;;;10.10;99.90;;;;;;4997841;28;20578;-63
2023/12/19 10:54:14;;;;;;;10.13;8.05;;;10.10;99.90;;;;;;4998198;28;20116;-63
2023/12/19 10:57:11;;;;;;;10.27;8.38;;;10.20;99.90;;;;;;4998531;28;20715;-63
2023/12/19 11:00:13;;;;;;;11.80;8.82;;;10.20;99.90;;;;;;4997548;28;20046;-64
2023/12/19 11:03:05;;;;;;;12.80;8.82;;;10.20;99.90;;;;;;4998510;28;20152;-63
2023/12/19 11:05:47;;;;;;;12.50;8.73;;;10.30;99.90;;;;;;4998058;28;20521;-63
2023/12/19 11:08:21;;;;;;;10.32;8.63;;;10.30;99.90;;;;;;4999047;28;20069;-63
2023/12/19 11:11:11;;;;;;;11.23;8.80;;;10.30;99.90;;;;;;5002108;28;20053;-64
2023/12/19 11:13:41;;;;;;;14.73;9.02;;;10.40;99.90;;;;;;5003003;28;20120;-62
2023/12/19 11:16:22;;;;;;;11.90;8.95;;;10.30;99.90;;;;;;5000466;28;20045;-64
2023/12/19 11:19:04;;;;;;;13.13;9.65;;;10.50;99.90;;;;;;5002231;28;20050;-63
2023/12/19 11:21:54;;;;;;;10.50;8.27;;;10.50;99.90;;;;;;5002991;28;20041;-64
2023/12/19 11:24:33;;;;;;;11.75;8.63;;;10.40;99.90;;;;;;5000173;28;20061;-64
2023/12/19 11:27:02;;;;;;;;;;;10.40;99.90;;;;;;5003715;28;20905;-64
2023/12/19 11:29:50;;;;;;;11.93;8.98;;;10.50;99.90;;;;;;5000484;28;20483;-63
2023/12/19 11:32:46;;;;;;;15.82;9.02;;;10.40;99.90;;;;;;5001749;28;20046;-63
2023/12/19 11:35:13;;;;;;;10.48;8.90;;;10.50;99.90;;;;;;4983146;28;20137;-64
2023/12/19 11:37:44;;;;;;;12.75;8.98;;;10.50;99.90;;;;;;5001566;28;20041;-63
2023/12/19 11:40:18;;;;;;;14.75;9.13;;;10.50;99.90;;;;;;5000470;28;20045;-64
2023/12/19 11:42:45;;;;;;;10.05;8.20;;;10.60;99.90;;;;;;5001957;28;21432;-65
2023/12/19 11:45:20;;;;;;;10.55;8.38;;;10.60;99.90;;;;;;4999286;28;20049;-64
2023/12/19 11:47:49;;;;;;;9.40;7.53;;;10.40;99.90;;;;;;4991867;28;20049;-63
2023/12/19 11:50:40;;;;;;;10.60;7.82;;;10.40;99.90;;;;;;5000472;28;20069;-64
2023/12/19 11:53:07;;;;;;;9.48;7.65;;;10.50;99.90;;;;;;5001572;28;20465;-65
2023/12/19 11:55:32;;;;;;;9.63;7.32;;;10.60;99.90;;;;;;5002810;28;20497;-64
2023/12/19 11:58:09;;;;;;;9.15;7.50;;;10.60;99.90;;;;;;5002476;28;20049;-63
2023/12/19 12:00:35;;;;;;;8.68;7.43;;;10.50;99.90;;;;;;5003097;28;20045;-64
2023/12/19 12:03:11;;;;;;;8.60;7.05;;;10.60;99.90;;;;;;5001123;28;20069;-64
2023/12/19 12:05:37;;;;;;;8.88;7.35;;;10.60;99.90;;;;;;5002187;28;20041;-64
2023/12/19 12:08:04;;;;;;;8.18;6.95;;;10.50;99.90;;;;;;5001558;28;20034;-64
2023/12/19 12:10:30;;;;;;;8.45;7.00;;;10.50;99.90;;;;;;4994217;28;20076;-63
2023/12/19 12:12:59;;;;;;;6.95;6.03;;;10.40;99.90;;;;;;5003024;28;20038;-63
2023/12/19 12:15:25;;;;;;;7.90;6.32;;;10.60;99.90;;;;;;5002110;28;20050;-65
2023/12/19 12:18:04;;;;;;;7.28;6.07;;;10.40;99.90;;;;;;5002312;28;20034;-64
2023/12/19 12:20:34;;;;;;;10.27;5.80;;;10.40;99.90;;;;;;4994943;28;20042;-63
2023/12/19 12:23:03;;;;;;;7.25;5.97;;;10.40;99.90;;;;;;4993674;28;20405;-64
2023/12/19 12:25:31;;;;;;;6.25;5.45;;;10.40;99.90;;;;;;5002515;28;20580;-64
2023/12/19 12:28:17;;;;;;;6.95;5.60;;;10.40;99.90;;;;;;5001526;28;20052;-63
2023/12/19 12:30:43;;;;;;;6.53;5.28;;;10.50;99.90;;;;;;5002832;28;20157;-64
2023/12/19 12:33:09;;;;;;;5.88;5.25;;;10.40;99.90;;;;;;5001632;28;20029;-65
2023/12/19 12:35:36;;;;;;;7.75;5.40;;;10.40;99.90;;;;;;5001004;28;20480;-65
2023/12/19 12:38:10;;;;;;;6.50;5.53;;;10.30;99.90;;;;;;5000641;28;20029;-64
2023/12/19 12:40:36;;;;;;;6.43;5.28;;;10.40;99.90;;;;;;5001040;28;20473;-64
2023/12/19 12:43:35;;;;;;;5.90;5.13;;;10.40;99.90;;;;;;5002273;28;20516;-64
2023/12/19 12:46:12;;;;;;;6.15;5.20;;;10.50;99.90;;;;;;5002241;28;20540;-63
2023/12/19 12:49:03;;;;;;;5.88;4.70;;;10.50;99.90;;;;;;5000188;28;20108;-64